Time;durP1;ratioP1;P1;durP2;ratioP2;P2;SDS_P1;SDS_P2;PMS_P1;PMS_P2;Temp;Humidity;BMP_temperature;BMP_pressure;BME280_temperature;BME280_humidity;BME280_pressure;Samples;Min_cycle;Max_cycle;Signal;HPM_P1;HPM_P2
2022/02/12 00:00:34;;;;;;;24.65;15.90;;;;;;;;;;855927;69;26204;-84
2022/02/12 00:01:37;;;;;;;19.82;14.90;;;;;;;;;;854772;69;26707;-86
2022/02/12 00:02:40;;;;;;;17.50;14.20;;;;;;;;;;854886;69;26244;-85
2022/02/12 00:03:43;;;;;;;19.73;13.60;;;;;;;;;;854893;69;26458;-85
2022/02/12 00:04:46;;;;;;;17.32;14.65;;;;;;;;;;854806;69;26188;-85
2022/02/12 00:05:48;;;;;;;20.25;15.15;;;;;;;;;;854914;69;26257;-85
2022/02/12 00:06:51;;;;;;;24.05;15.55;;;;;;;;;;854763;69;26702;-87
2022/02/12 00:07:55;;;;;;;22.75;14.68;;;;;;;;;;854868;69;26185;-84
2022/02/12 00:08:58;;;;;;;19.05;14.28;;;;;;;;;;855501;69;26248;-86
2022/02/12 00:10:02;;;;;;;16.10;12.43;;;;;;;;;;856565;69;26240;-88
2022/02/12 00:11:04;;;;;;;14.68;11.60;;;;;;;;;;856606;69;26244;-85
2022/02/12 00:12:08;;;;;;;12.80;10.93;;;;;;;;;;855532;69;26247;-84
2022/02/12 00:13:11;;;;;;;15.30;12.40;;;;;;;;;;855365;69;26317;-86
2022/02/12 00:14:14;;;;;;;19.15;13.95;;;;;;;;;;855428;69;26271;-84
2022/02/12 00:15:17;;;;;;;17.10;12.58;;;;;;;;;;855300;69;26678;-84
2022/02/12 00:16:20;;;;;;;17.52;13.32;;;;;;;;;;855216;69;26345;-86
2022/02/12 00:17:23;;;;;;;15.55;12.30;;;;;;;;;;855364;69;26236;-84
2022/02/12 00:18:26;;;;;;;14.38;12.10;;;;;;;;;;855361;69;26307;-85
2022/02/12 00:19:28;;;;;;;14.15;11.53;;;;;;;;;;855486;69;26663;-83
2022/02/12 00:20:34;;;;;;;18.02;13.70;;;;;;;;;;856065;69;26181;-84
2022/02/12 00:21:37;;;;;;;16.87;13.15;;;;;;;;;;855989;69;26201;-85
2022/02/12 00:22:40;;;;;;;15.80;11.40;;;;;;;;;;856816;69;26266;-81
2022/02/12 00:23:43;;;;;;;14.60;10.32;;;;;;;;;;855963;69;26146;-85
2022/02/12 00:24:46;;;;;;;13.40;10.25;;;;;;;;;;855664;69;26239;-85
2022/02/12 00:25:48;;;;;;;10.58;8.60;;;;;;;;;;855661;69;26185;-83
2022/02/12 00:26:51;;;;;;;15.98;10.65;;;;;;;;;;855353;69;26291;-84
2022/02/12 00:27:54;;;;;;;16.10;12.80;;;;;;;;;;855448;69;26224;-82
2022/02/12 00:28:57;;;;;;;16.23;12.93;;;;;;;;;;855114;69;26694;-84
2022/02/12 00:30:00;;;;;;;15.80;12.18;;;;;;;;;;855499;69;26309;-87
2022/02/12 00:31:03;;;;;;;16.07;11.00;;;;;;;;;;855266;69;26373;-84
2022/02/12 00:32:06;;;;;;;12.85;9.80;;;;;;;;;;855189;69;26306;-85
2022/02/12 00:33:09;;;;;;;9.28;7.90;;;;;;;;;;855148;69;26752;-85
2022/02/12 00:34:12;;;;;;;12.37;9.18;;;;;;;;;;855150;69;26952;-84
2022/02/12 00:35:15;;;;;;;16.25;11.63;;;;;;;;;;854841;69;26781;-85
2022/02/12 00:36:18;;;;;;;19.17;13.35;;;;;;;;;;854871;69;26340;-84
2022/02/12 00:37:20;;;;;;;15.20;12.03;;;;;;;;;;854759;69;26619;-83
2022/02/12 00:38:23;;;;;;;11.20;9.78;;;;;;;;;;854702;69;26294;-85
2022/02/12 00:39:26;;;;;;;13.98;10.65;;;;;;;;;;854580;69;26254;-84
2022/02/12 00:40:29;;;;;;;15.70;11.28;;;;;;;;;;854521;69;26268;-83
2022/02/12 00:41:32;;;;;;;16.60;12.15;;;;;;;;;;854455;69;26275;-85
2022/02/12 00:42:35;;;;;;;18.57;12.45;;;;;;;;;;854627;69;26792;-84
2022/02/12 00:43:40;;;;;;;14.45;11.30;;;;;;;;;;854730;69;26340;-85
2022/02/12 00:44:42;;;;;;;17.50;12.40;;;;;;;;;;854704;69;26297;-85
2022/02/12 00:45:48;;;;;;;16.70;13.00;;;;;;;;;;854698;69;26189;-85
2022/02/12 00:46:50;;;;;;;19.62;14.07;;;;;;;;;;854549;69;26236;-85
2022/02/12 00:47:55;;;;;;;24.07;13.53;;;;;;;;;;854815;69;26224;-84
2022/02/12 00:48:57;;;;;;;20.23;15.08;;;;;;;;;;854542;69;26726;-85
2022/02/12 00:50:00;;;;;;;17.10;14.33;;;;;;;;;;854605;69;26240;-85
2022/02/12 00:51:03;;;;;;;18.90;14.50;;;;;;;;;;854777;69;26202;-84
2022/02/12 00:52:06;;;;;;;17.57;13.60;;;;;;;;;;854729;69;26293;-86
2022/02/12 00:53:09;;;;;;;17.77;12.43;;;;;;;;;;854629;69;26532;-85
2022/02/12 00:54:11;;;;;;;19.37;14.38;;;;;;;;;;854599;69;26678;-85
2022/02/12 00:55:14;;;;;;;17.65;14.58;;;;;;;;;;851840;69;26268;-85
2022/02/12 00:56:17;;;;;;;21.45;15.30;;;;;;;;;;851764;69;26752;-83
2022/02/12 00:57:20;;;;;;;36.00;24.82;;;;;;;;;;851609;69;26244;-86
2022/02/12 00:58:23;;;;;;;39.48;27.85;;;;;;;;;;851706;69;26718;-85
2022/02/12 00:59:25;;;;;;;34.33;24.20;;;;;;;;;;851604;69;26714;-85
2022/02/12 01:00:28;;;;;;;27.40;19.92;;;;;;;;;;851375;69;26243;-84
2022/02/12 01:01:32;;;;;;;24.77;17.98;;;;;;;;;;851533;69;26295;-84
2022/02/12 01:02:35;;;;;;;23.27;17.23;;;;;;;;;;851619;69;26321;-83
2022/02/12 01:03:38;;;;;;;23.30;17.23;;;;;;;;;;851520;69;26323;-85
2022/02/12 01:04:40;;;;;;;20.90;15.85;;;;;;;;;;851607;69;26259;-84
2022/02/12 01:05:43;;;;;;;22.50;17.42;;;;;;;;;;851501;69;26722;-84
2022/02/12 01:06:47;;;;;;;21.97;18.15;;;;;;;;;;860699;69;26306;-84
2022/02/12 01:07:49;;;;;;;24.90;19.30;;;;;;;;;;861589;69;26272;-84
2022/02/12 01:08:52;;;;;;;28.73;21.07;;;;;;;;;;853142;69;26248;-84
2022/02/12 01:09:55;;;;;;;25.57;19.50;;;;;;;;;;852230;69;26287;-84
2022/02/12 01:10:59;;;;;;;28.80;21.30;;;;;;;;;;852010;69;26297;-85
2022/02/12 01:12:03;;;;;;;31.93;22.07;;;;;;;;;;852290;69;26246;-83
2022/02/12 01:13:06;;;;;;;30.55;20.85;;;;;;;;;;852549;69;26194;-85
2022/02/12 01:14:10;;;;;;;30.95;21.17;;;;;;;;;;851817;69;26333;-86
2022/02/12 01:15:12;;;;;;;27.95;19.98;;;;;;;;;;852284;69;26664;-85
2022/02/12 01:16:15;;;;;;;30.00;19.32;;;;;;;;;;853218;69;26692;-86
2022/02/12 01:17:18;;;;;;;28.45;20.70;;;;;;;;;;852622;69;26270;-85
2022/02/12 01:18:21;;;;;;;27.32;20.77;;;;;;;;;;852845;69;26209;-85
2022/02/12 01:19:23;;;;;;;28.62;20.23;;;;;;;;;;854028;69;26189;-86
2022/02/12 01:20:26;;;;;;;23.98;18.07;;;;;;;;;;853611;69;26250;-85
2022/02/12 01:21:29;;;;;;;25.45;19.67;;;;;;;;;;852970;69;26189;-87
2022/02/12 01:22:32;;;;;;;26.37;17.85;;;;;;;;;;852315;69;26252;-85
2022/02/12 01:23:35;;;;;;;24.85;17.85;;;;;;;;;;852972;69;26309;-85
2022/02/12 01:24:39;;;;;;;24.60;18.15;;;;;;;;;;853009;69;26252;-86
2022/02/12 01:25:44;;;;;;;24.70;17.10;;;;;;;;;;852545;69;26189;-85
2022/02/12 01:26:48;;;;;;;23.32;18.25;;;;;;;;;;852316;69;26275;-84
2022/02/12 01:27:53;;;;;;;25.08;18.17;;;;;;;;;;852166;69;26264;-84
2022/02/12 01:28:56;;;;;;;24.75;18.52;;;;;;;;;;852250;69;26216;-84
2022/02/12 01:29:59;;;;;;;29.02;18.62;;;;;;;;;;851939;69;26302;-86
2022/02/12 01:31:02;;;;;;;25.37;18.45;;;;;;;;;;851838;69;26810;-84
2022/02/12 01:32:05;;;;;;;27.75;19.60;;;;;;;;;;852341;69;26343;-87
2022/02/12 01:33:08;;;;;;;26.82;19.15;;;;;;;;;;852370;69;26921;-87
2022/02/12 01:34:10;;;;;;;25.32;18.80;;;;;;;;;;852608;69;26236;-87
2022/02/12 01:35:13;;;;;;;25.52;19.27;;;;;;;;;;853912;69;26274;-86
2022/02/12 01:36:16;;;;;;;26.07;19.25;;;;;;;;;;853863;69;26220;-85
2022/02/12 01:37:19;;;;;;;25.48;18.80;;;;;;;;;;853644;69;26302;-88
2022/02/12 01:38:22;;;;;;;25.65;18.25;;;;;;;;;;853857;69;26209;-89
2022/02/12 01:39:25;;;;;;;25.90;18.40;;;;;;;;;;853972;69;26209;-88
2022/02/12 01:40:28;;;;;;;23.98;18.80;;;;;;;;;;853908;69;26219;-87
2022/02/12 01:41:31;;;;;;;23.38;17.67;;;;;;;;;;854071;69;26192;-86
2022/02/12 01:42:33;;;;;;;20.70;16.15;;;;;;;;;;854015;69;26227;-85
2022/02/12 01:43:36;;;;;;;23.80;16.20;;;;;;;;;;853822;69;26231;-86
2022/02/12 01:44:41;;;;;;;20.88;16.00;;;;;;;;;;853458;69;26216;-88
2022/02/12 01:45:44;;;;;;;20.48;15.25;;;;;;;;;;853804;69;26246;-87
2022/02/12 01:46:46;;;;;;;22.48;15.90;;;;;;;;;;853911;69;26157;-87
2022/02/12 01:47:49;;;;;;;18.48;15.10;;;;;;;;;;853268;69;26264;-86
2022/02/12 01:48:52;;;;;;;22.65;16.00;;;;;;;;;;853568;69;26230;-86
2022/02/12 01:49:55;;;;;;;21.00;16.37;;;;;;;;;;851876;69;26232;-86
2022/02/12 01:50:58;;;;;;;22.90;16.50;;;;;;;;;;851786;69;26276;-87
2022/02/12 01:52:01;;;;;;;19.05;14.47;;;;;;;;;;851874;69;26184;-87
2022/02/12 01:53:04;;;;;;;21.48;15.50;;;;;;;;;;852018;69;26236;-86
2022/02/12 01:54:07;;;;;;;21.10;15.58;;;;;;;;;;852020;69;26264;-88
2022/02/12 01:55:12;;;;;;;20.40;14.85;;;;;;;;;;852116;69;26343;-87
2022/02/12 01:56:15;;;;;;;17.90;14.33;;;;;;;;;;853326;68;26296;-89
2022/02/12 01:57:18;;;;;;;15.58;13.00;;;;;;;;;;853706;69;26201;-87
2022/02/12 01:58:21;;;;;;;16.12;12.93;;;;;;;;;;853874;69;26198;-88
2022/02/12 01:59:24;;;;;;;18.20;12.15;;;;;;;;;;853871;69;26267;-86
2022/02/12 02:00:27;;;;;;;13.08;10.38;;;;;;;;;;854077;69;26414;-87
2022/02/12 02:01:30;;;;;;;14.05;10.00;;;;;;;;;;854657;69;26189;-85
2022/02/12 02:02:33;;;;;;;11.08;9.85;;;;;;;;;;854414;69;26201;-86
2022/02/12 02:03:37;;;;;;;12.25;10.75;;;;;;;;;;855329;69;26161;-86
2022/02/12 02:04:40;;;;;;;13.25;9.53;;;;;;;;;;855278;69;26238;-86
2022/02/12 02:05:43;;;;;;;14.53;10.60;;;;;;;;;;855238;69;26290;-86
2022/02/12 02:06:47;;;;;;;13.93;10.70;;;;;;;;;;855187;69;26154;-87
2022/02/12 02:07:50;;;;;;;13.93;10.43;;;;;;;;;;855035;69;26312;-86
2022/02/12 02:08:53;;;;;;;16.17;11.22;;;;;;;;;;855489;69;26189;-86
2022/02/12 02:09:56;;;;;;;12.25;10.43;;;;;;;;;;854651;69;26232;-87
2022/02/12 02:10:59;;;;;;;14.65;10.40;;;;;;;;;;854459;69;26200;-87
2022/02/12 02:12:02;;;;;;;14.87;9.60;;;;;;;;;;853828;69;26193;-86
2022/02/12 02:13:05;;;;;;;11.73;8.85;;;;;;;;;;853924;69;26271;-86
2022/02/12 02:14:10;;;;;;;11.50;8.93;;;;;;;;;;854469;69;26290;-88
2022/02/12 02:15:13;;;;;;;9.78;8.78;;;;;;;;;;853946;69;26729;-88
2022/02/12 02:16:16;;;;;;;9.68;7.92;;;;;;;;;;854693;69;26173;-89
2022/02/12 02:17:18;;;;;;;8.30;7.50;;;;;;;;;;855317;69;26376;-88
2022/02/12 02:18:22;;;;;;;9.73;8.25;;;;;;;;;;854475;69;26652;-87
2022/02/12 02:19:25;;;;;;;11.60;8.85;;;;;;;;;;853108;69;26289;-87
2022/02/12 02:20:31;;;;;;;9.28;8.08;;;;;;;;;;853303;69;26935;-84
2022/02/12 02:21:34;;;;;;;14.40;8.65;;;;;;;;;;853427;69;26729;-85
2022/02/12 02:22:41;;;;;;;10.18;8.08;;;;;;;;;;853198;69;26293;-88
2022/02/12 02:23:44;;;;;;;8.53;6.85;;;;;;;;;;852225;69;26278;-86
2022/02/12 02:24:47;;;;;;;10.82;8.95;;;;;;;;;;853219;69;26309;-87
2022/02/12 02:25:50;;;;;;;9.70;7.67;;;;;;;;;;853999;69;26173;-86
2022/02/12 02:26:54;;;;;;;10.68;8.03;;;;;;;;;;853863;69;26280;-88
2022/02/12 02:27:57;;;;;;;8.90;7.75;;;;;;;;;;853633;69;26256;-87
2022/02/12 02:29:00;;;;;;;9.35;7.95;;;;;;;;;;855233;69;26227;-87
2022/02/12 02:30:03;;;;;;;9.20;7.45;;;;;;;;;;853360;69;26197;-87
2022/02/12 02:31:06;;;;;;;10.55;8.00;;;;;;;;;;853189;69;26268;-85
2022/02/12 02:32:10;;;;;;;10.98;7.87;;;;;;;;;;853234;69;26272;-87
2022/02/12 02:33:12;;;;;;;9.23;7.90;;;;;;;;;;853204;69;26275;-86
2022/02/12 02:34:15;;;;;;;9.68;7.75;;;;;;;;;;853204;69;26231;-88
2022/02/12 02:35:18;;;;;;;8.15;7.05;;;;;;;;;;853272;69;26317;-86
2022/02/12 02:36:22;;;;;;;7.62;6.83;;;;;;;;;;853153;69;26713;-86
2022/02/12 02:37:25;;;;;;;11.63;8.13;;;;;;;;;;853265;69;26238;-87
2022/02/12 02:38:28;;;;;;;8.30;7.12;;;;;;;;;;853237;69;26192;-87
2022/02/12 02:39:31;;;;;;;8.83;7.03;;;;;;;;;;853174;69;26256;-88
2022/02/12 02:40:34;;;;;;;8.25;7.08;;;;;;;;;;853159;69;26686;-87
2022/02/12 02:41:37;;;;;;;8.28;7.20;;;;;;;;;;853077;69;26287;-88
2022/02/12 02:42:41;;;;;;;9.53;8.08;;;;;;;;;;853224;69;26252;-87
2022/02/12 02:43:44;;;;;;;8.68;7.55;;;;;;;;;;853231;69;26204;-87
2022/02/12 02:44:49;;;;;;;10.08;7.17;;;;;;;;;;852841;69;26667;-86
2022/02/12 02:45:52;;;;;;;13.03;7.47;;;;;;;;;;853306;69;26322;-88
2022/02/12 02:46:55;;;;;;;9.08;7.28;;;;;;;;;;853288;69;26242;-85
2022/02/12 02:48:03;;;;;;;9.45;7.50;;;;;;;;;;853413;69;26181;-85
2022/02/12 02:49:05;;;;;;;8.58;7.58;;;;;;;;;;853228;69;26322;-85
2022/02/12 02:57:01;;;;;;;9.95;6.97;;;;;;;;;;823192;72;26280;-85
2022/02/12 02:58:04;;;;;;;8.58;7.33;;;;;;;;;;823382;72;26354;-85
2022/02/12 02:59:07;;;;;;;9.40;7.42;;;;;;;;;;841336;69;26188;-85
2022/02/12 03:00:10;;;;;;;11.30;8.00;;;;;;;;;;853661;69;26322;-85
2022/02/12 03:01:14;;;;;;;10.15;7.80;;;;;;;;;;853112;69;26189;-85
2022/02/12 03:02:18;;;;;;;9.40;7.95;;;;;;;;;;852995;69;27068;-86
2022/02/12 03:03:21;;;;;;;11.83;8.08;;;;;;;;;;853301;69;26891;-86
2022/02/12 03:04:25;;;;;;;10.15;7.95;;;;;;;;;;853167;69;26228;-86
2022/02/12 03:05:28;;;;;;;11.57;9.18;;;;;;;;;;853176;69;26373;-86
2022/02/12 03:06:30;;;;;;;11.05;8.53;;;;;;;;;;853293;69;26385;-85
2022/02/12 03:07:33;;;;;;;12.98;8.98;;;;;;;;;;853059;69;26248;-85
2022/02/12 03:08:36;;;;;;;11.55;8.80;;;;;;;;;;853277;69;26229;-85
2022/02/12 03:09:41;;;;;;;12.55;9.50;;;;;;;;;;853129;69;26201;-86
2022/02/12 03:10:44;;;;;;;11.05;9.25;;;;;;;;;;853195;69;26259;-85
2022/02/12 03:11:48;;;;;;;11.20;8.80;;;;;;;;;;853358;69;26289;-86
2022/02/12 03:12:50;;;;;;;10.58;8.93;;;;;;;;;;853716;69;26635;-86
2022/02/12 03:13:55;;;;;;;11.73;8.93;;;;;;;;;;853009;69;26258;-86
2022/02/12 03:14:58;;;;;;;12.55;9.43;;;;;;;;;;861891;68;26248;-85
2022/02/12 03:16:02;;;;;;;11.55;9.20;;;;;;;;;;861676;69;26293;-87
2022/02/12 03:17:04;;;;;;;11.38;8.75;;;;;;;;;;853226;69;26332;-85
2022/02/12 03:18:07;;;;;;;14.38;9.08;;;;;;;;;;853209;69;26181;-85
2022/02/12 03:19:10;;;;;;;13.53;9.13;;;;;;;;;;853103;69;26361;-87
2022/02/12 03:20:13;;;;;;;12.75;9.30;;;;;;;;;;853216;69;26250;-86
2022/02/12 03:21:16;;;;;;;11.88;7.92;;;;;;;;;;853166;69;26244;-85
2022/02/12 03:22:19;;;;;;;12.53;9.05;;;;;;;;;;853273;69;26256;-86
2022/02/12 03:23:21;;;;;;;11.38;9.13;;;;;;;;;;853601;69;26243;-85
2022/02/12 03:24:24;;;;;;;13.20;9.23;;;;;;;;;;852960;69;26379;-86
2022/02/12 03:25:27;;;;;;;11.73;8.98;;;;;;;;;;853866;69;26253;-86
2022/02/12 03:26:30;;;;;;;9.98;7.72;;;;;;;;;;854748;69;26250;-87
2022/02/12 03:27:33;;;;;;;11.45;8.63;;;;;;;;;;855666;69;26244;-86
2022/02/12 03:28:36;;;;;;;10.10;8.30;;;;;;;;;;853432;69;26189;-87
2022/02/12 03:29:39;;;;;;;11.78;7.92;;;;;;;;;;852986;69;26775;-85
2022/02/12 03:30:45;;;;;;;9.35;7.90;;;;;;;;;;853376;69;26721;-87
2022/02/12 03:31:47;;;;;;;8.80;7.30;;;;;;;;;;853193;69;26639;-87
2022/02/12 03:32:50;;;;;;;9.73;7.95;;;;;;;;;;853267;69;26903;-85
2022/02/12 03:33:53;;;;;;;11.08;7.25;;;;;;;;;;853312;69;26255;-86
2022/02/12 03:34:56;;;;;;;11.03;7.05;;;;;;;;;;853250;69;26259;-86
2022/02/12 03:36:00;;;;;;;9.43;6.87;;;;;;;;;;853680;69;26357;-85
2022/02/12 03:37:03;;;;;;;7.03;6.33;;;;;;;;;;854434;69;26239;-86
2022/02/12 03:38:16;;;;;;;6.78;6.08;;;;;;;;;;855568;69;26413;-86
2022/02/12 03:39:19;;;;;;;7.95;7.03;;;;;;;;;;854161;69;26306;-85
2022/02/12 03:40:22;;;;;;;7.83;6.30;;;;;;;;;;853344;69;26196;-86
2022/02/12 03:41:26;;;;;;;9.23;6.78;;;;;;;;;;853224;69;26714;-88
2022/02/12 03:42:29;;;;;;;8.63;6.42;;;;;;;;;;852975;69;26740;-86
2022/02/12 03:43:32;;;;;;;8.00;6.62;;;;;;;;;;853203;69;26627;-88
2022/02/12 03:44:35;;;;;;;7.00;6.10;;;;;;;;;;853189;69;26765;-84
2022/02/12 03:45:39;;;;;;;9.95;7.12;;;;;;;;;;853236;69;26634;-85
2022/02/12 03:46:41;;;;;;;8.18;6.50;;;;;;;;;;853259;69;26248;-83
2022/02/12 03:47:44;;;;;;;8.58;7.50;;;;;;;;;;853111;69;26245;-86
2022/02/12 03:48:47;;;;;;;7.45;6.05;;;;;;;;;;853173;69;26263;-85
2022/02/12 03:49:51;;;;;;;7.28;6.58;;;;;;;;;;853621;69;26204;-83
2022/02/12 03:50:54;;;;;;;8.20;7.20;;;;;;;;;;853123;69;26205;-85
2022/02/12 03:51:57;;;;;;;9.13;6.87;;;;;;;;;;852969;69;26256;-83
2022/02/12 03:53:01;;;;;;;9.35;7.12;;;;;;;;;;853037;69;26329;-84
2022/02/12 03:54:04;;;;;;;7.92;6.65;;;;;;;;;;853195;69;26228;-83
2022/02/12 03:55:08;;;;;;;10.63;7.08;;;;;;;;;;853090;69;26262;-85
2022/02/12 03:56:11;;;;;;;10.23;7.15;;;;;;;;;;853246;69;26635;-81
2022/02/12 03:57:14;;;;;;;7.90;7.03;;;;;;;;;;853273;69;26310;-83
2022/02/12 03:58:19;;;;;;;9.13;7.15;;;;;;;;;;852658;69;26302;-84
2022/02/12 03:59:23;;;;;;;9.45;6.78;;;;;;;;;;852916;69;26252;-86
2022/02/12 04:00:25;;;;;;;9.18;7.92;;;;;;;;;;853215;69;26922;-85
2022/02/12 04:01:28;;;;;;;7.92;6.70;;;;;;;;;;853675;69;26200;-85
2022/02/12 04:02:31;;;;;;;8.60;6.80;;;;;;;;;;853133;69;26197;-87
2022/02/12 04:03:34;;;;;;;7.53;6.45;;;;;;;;;;853237;69;26615;-86
2022/02/12 04:04:37;;;;;;;8.48;6.97;;;;;;;;;;853178;69;26253;-86
2022/02/12 04:05:46;;;;;;;8.80;7.00;;;;;;;;;;853223;69;26297;-86
2022/02/12 04:06:49;;;;;;;8.53;6.72;;;;;;;;;;853154;69;26236;-87
2022/02/12 04:07:51;;;;;;;9.68;7.75;;;;;;;;;;853202;69;26250;-86
2022/02/12 04:08:56;;;;;;;11.80;6.58;;;;;;;;;;853124;69;26243;-86
2022/02/12 04:09:59;;;;;;;8.43;6.97;;;;;;;;;;853181;69;26271;-86
2022/02/12 04:11:01;;;;;;;7.47;6.60;;;;;;;;;;853162;69;26250;-87
2022/02/12 04:12:04;;;;;;;10.98;7.78;;;;;;;;;;852680;69;26236;-87
2022/02/12 04:13:07;;;;;;;7.97;7.10;;;;;;;;;;853226;69;26372;-84
2022/02/12 04:14:14;;;;;;;8.75;7.65;;;;;;;;;;853192;69;26251;-85
2022/02/12 04:15:16;;;;;;;11.85;7.45;;;;;;;;;;853165;69;26244;-84
2022/02/12 04:16:19;;;;;;;8.88;6.95;;;;;;;;;;852985;69;26276;-84
2022/02/12 04:17:24;;;;;;;11.55;6.92;;;;;;;;;;853068;69;26305;-85
2022/02/12 04:18:27;;;;;;;8.20;7.33;;;;;;;;;;853269;69;26729;-86
2022/02/12 04:19:31;;;;;;;8.03;7.00;;;;;;;;;;852907;69;26317;-85
2022/02/12 04:20:34;;;;;;;10.78;7.17;;;;;;;;;;853261;69;26462;-86
2022/02/12 04:21:37;;;;;;;9.03;7.90;;;;;;;;;;853151;69;26247;-86
2022/02/12 04:22:41;;;;;;;8.85;7.95;;;;;;;;;;853093;69;26237;-85
2022/02/12 04:23:45;;;;;;;12.20;8.38;;;;;;;;;;853176;69;26260;-84
2022/02/12 04:24:48;;;;;;;14.47;8.05;;;;;;;;;;853219;69;26242;-87
2022/02/12 04:25:51;;;;;;;10.08;7.90;;;;;;;;;;853503;69;26201;-84
2022/02/12 04:26:54;;;;;;;9.73;8.10;;;;;;;;;;853207;69;26200;-84
2022/02/12 04:27:57;;;;;;;9.40;8.13;;;;;;;;;;853182;69;26706;-85
2022/02/12 04:29:01;;;;;;;11.48;8.73;;;;;;;;;;853138;69;26360;-87
2022/02/12 04:30:05;;;;;;;10.45;9.15;;;;;;;;;;853323;69;26236;-84
2022/02/12 04:31:08;;;;;;;11.40;8.43;;;;;;;;;;853233;69;26247;-85
2022/02/12 04:32:10;;;;;;;10.43;8.90;;;;;;;;;;852947;69;26349;-84
2022/02/12 04:33:13;;;;;;;11.55;10.15;;;;;;;;;;853068;69;26181;-85
2022/02/12 04:34:16;;;;;;;13.58;10.53;;;;;;;;;;853788;69;26193;-85
2022/02/12 04:35:19;;;;;;;13.50;10.78;;;;;;;;;;854536;69;26282;-84
2022/02/12 04:36:22;;;;;;;15.00;11.55;;;;;;;;;;855504;69;26174;-86
2022/02/12 04:37:24;;;;;;;16.90;11.95;;;;;;;;;;855381;69;26471;-86
2022/02/12 04:38:27;;;;;;;14.63;11.55;;;;;;;;;;854264;69;26255;-87
2022/02/12 04:39:30;;;;;;;14.23;11.43;;;;;;;;;;853967;69;26279;-86
2022/02/12 04:40:36;;;;;;;15.63;13.15;;;;;;;;;;853543;69;26189;-87
2022/02/12 04:41:39;;;;;;;16.00;13.15;;;;;;;;;;853258;69;26321;-84
2022/02/12 04:42:42;;;;;;;16.90;13.72;;;;;;;;;;853184;69;26920;-84
2022/02/12 04:43:44;;;;;;;18.80;14.50;;;;;;;;;;853364;69;26206;-82
2022/02/12 04:44:49;;;;;;;21.57;16.60;;;;;;;;;;853103;69;26674;-84
2022/02/12 04:45:51;;;;;;;18.07;15.93;;;;;;;;;;853312;69;26756;-85
2022/02/12 04:46:54;;;;;;;16.60;14.80;;;;;;;;;;853965;69;26268;-84
2022/02/12 04:47:57;;;;;;;20.48;16.42;;;;;;;;;;855293;69;26247;-88
2022/02/12 04:49:02;;;;;;;18.15;15.53;;;;;;;;;;855049;69;26244;-83
2022/02/12 04:50:07;;;;;;;21.10;17.80;;;;;;;;;;854066;69;26236;-84
2022/02/12 04:51:09;;;;;;;22.02;16.95;;;;;;;;;;853717;69;26232;-83
2022/02/12 04:52:13;;;;;;;22.40;17.62;;;;;;;;;;853214;69;26715;-85
2022/02/12 04:53:16;;;;;;;22.27;17.73;;;;;;;;;;853341;69;26755;-83
2022/02/12 04:54:19;;;;;;;29.50;18.98;;;;;;;;;;853398;69;26252;-82
2022/02/12 04:55:22;;;;;;;26.62;20.27;;;;;;;;;;853397;69;26693;-84
2022/02/12 04:56:29;;;;;;;26.62;21.07;;;;;;;;;;853139;69;26209;-83
2022/02/12 04:57:30;;;;;;;26.35;20.90;;;;;;;;;;853043;69;26380;-84
2022/02/12 04:58:33;;;;;;;26.05;19.98;;;;;;;;;;854020;69;26356;-84
2022/02/12 04:59:36;;;;;;;24.07;19.80;;;;;;;;;;854806;69;26329;-85
2022/02/12 05:00:39;;;;;;;26.57;21.17;;;;;;;;;;854843;69;26250;-83
2022/02/12 05:01:42;;;;;;;28.70;22.17;;;;;;;;;;854894;69;26739;-84
2022/02/12 05:02:46;;;;;;;32.48;23.62;;;;;;;;;;854747;69;26298;-82
2022/02/12 05:03:52;;;;;;;29.25;23.00;;;;;;;;;;854996;69;26246;-86
2022/02/12 05:04:55;;;;;;;29.52;23.45;;;;;;;;;;854771;69;26273;-85
2022/02/12 05:05:58;;;;;;;31.20;24.05;;;;;;;;;;854971;69;26252;-86
2022/02/12 05:07:00;;;;;;;32.05;23.00;;;;;;;;;;854869;69;26914;-86
2022/02/12 05:08:03;;;;;;;30.92;24.23;;;;;;;;;;854698;69;26232;-87
2022/02/12 05:09:06;;;;;;;31.95;24.90;;;;;;;;;;854648;69;26279;-86
2022/02/12 05:10:10;;;;;;;30.88;23.05;;;;;;;;;;854764;69;26294;-88
2022/02/12 05:11:13;;;;;;;28.17;23.42;;;;;;;;;;854863;69;26356;-86
2022/02/12 05:12:16;;;;;;;29.75;23.75;;;;;;;;;;854774;69;26721;-87
2022/02/12 05:13:19;;;;;;;32.98;24.95;;;;;;;;;;854694;69;26650;-85
2022/02/12 05:14:22;;;;;;;30.65;24.18;;;;;;;;;;854888;69;26650;-85
2022/02/12 05:15:26;;;;;;;29.42;23.85;;;;;;;;;;855216;69;26248;-86
2022/02/12 05:16:29;;;;;;;31.80;24.32;;;;;;;;;;854906;69;26254;-84
2022/02/12 05:17:31;;;;;;;31.90;25.02;;;;;;;;;;854809;69;26192;-88
2022/02/12 05:18:34;;;;;;;31.70;25.02;;;;;;;;;;854675;69;26660;-87
2022/02/12 05:19:37;;;;;;;33.58;25.70;;;;;;;;;;854949;69;26232;-87
2022/02/12 05:20:40;;;;;;;33.45;26.40;;;;;;;;;;854783;69;26320;-86
2022/02/12 05:21:43;;;;;;;34.43;25.90;;;;;;;;;;855086;69;26301;-85
2022/02/12 05:22:46;;;;;;;33.08;25.60;;;;;;;;;;854965;69;26271;-86
2022/02/12 05:23:49;;;;;;;34.92;25.82;;;;;;;;;;854585;69;26749;-87
2022/02/12 05:24:52;;;;;;;31.37;25.30;;;;;;;;;;854706;69;26337;-87
2022/02/12 05:25:54;;;;;;;31.25;24.60;;;;;;;;;;854685;69;26321;-85
2022/02/12 05:26:57;;;;;;;38.08;25.27;;;;;;;;;;854774;69;26238;-86
2022/02/12 05:28:00;;;;;;;32.73;25.75;;;;;;;;;;854695;69;26355;-86
2022/02/12 05:29:03;;;;;;;32.10;24.92;;;;;;;;;;854568;69;26264;-87
2022/02/12 05:30:06;;;;;;;34.95;25.85;;;;;;;;;;854433;69;26931;-86
2022/02/12 05:31:09;;;;;;;33.50;24.60;;;;;;;;;;854599;69;26188;-88
2022/02/12 05:32:12;;;;;;;36.50;25.90;;;;;;;;;;854760;69;26321;-86
2022/02/12 05:33:15;;;;;;;33.58;26.30;;;;;;;;;;854760;69;26329;-88
2022/02/12 05:34:19;;;;;;;34.27;25.37;;;;;;;;;;854747;69;26774;-86
2022/02/12 05:35:22;;;;;;;32.10;24.50;;;;;;;;;;854748;69;26309;-88
2022/02/12 05:36:25;;;;;;;36.77;26.30;;;;;;;;;;854791;69;26691;-86
2022/02/12 05:37:28;;;;;;;34.63;25.00;;;;;;;;;;855019;69;26296;-86
2022/02/12 05:38:30;;;;;;;37.25;26.55;;;;;;;;;;855075;69;26250;-87
2022/02/12 05:39:33;;;;;;;34.85;26.93;;;;;;;;;;853877;69;26224;-79
2022/02/12 05:40:36;;;;;;;36.33;27.20;;;;;;;;;;854454;69;26751;-80
2022/02/12 05:41:38;;;;;;;36.60;27.05;;;;;;;;;;854509;69;26297;-79
2022/02/12 05:42:41;;;;;;;31.15;24.55;;;;;;;;;;854455;69;26295;-81
2022/02/12 05:43:44;;;;;;;32.85;25.88;;;;;;;;;;854481;69;26263;-78
2022/02/12 05:44:49;;;;;;;35.17;26.90;;;;;;;;;;854882;69;26295;-81
2022/02/12 05:45:52;;;;;;;37.95;27.22;;;;;;;;;;855008;69;26268;-79
2022/02/12 05:46:55;;;;;;;31.87;25.15;;;;;;;;;;855258;69;26267;-80
2022/02/12 05:47:59;;;;;;;36.00;26.90;;;;;;;;;;855112;69;26271;-80
2022/02/12 05:49:03;;;;;;;36.35;26.27;;;;;;;;;;854740;69;26275;-81
2022/02/12 05:50:06;;;;;;;36.38;26.30;;;;;;;;;;854642;69;26228;-80
2022/02/12 05:51:09;;;;;;;35.00;26.50;;;;;;;;;;854681;69;26696;-79
2022/02/12 05:52:11;;;;;;;34.23;25.82;;;;;;;;;;854519;69;26267;-80
2022/02/12 05:53:14;;;;;;;36.08;27.52;;;;;;;;;;854459;69;26647;-81
2022/02/12 05:54:17;;;;;;;41.53;28.45;;;;;;;;;;854489;69;26256;-80
2022/02/12 05:55:19;;;;;;;32.80;25.92;;;;;;;;;;854485;69;26205;-78
2022/02/12 05:56:23;;;;;;;35.05;26.52;;;;;;;;;;854379;69;26292;-79
2022/02/12 05:57:27;;;;;;;34.05;26.73;;;;;;;;;;853985;69;26244;-79
2022/02/12 05:58:30;;;;;;;31.20;24.60;;;;;;;;;;854619;69;26240;-78
2022/02/12 05:59:33;;;;;;;36.23;25.65;;;;;;;;;;852891;69;26265;-81
2022/02/12 06:00:35;;;;;;;34.43;25.20;;;;;;;;;;851449;69;26717;-82
2022/02/12 06:01:38;;;;;;;37.10;26.23;;;;;;;;;;851466;69;26249;-81
2022/02/12 06:02:41;;;;;;;31.33;25.50;;;;;;;;;;851581;69;26363;-81
2022/02/12 06:03:44;;;;;;;32.63;25.32;;;;;;;;;;851512;69;26196;-79
2022/02/12 06:04:46;;;;;;;34.83;25.12;;;;;;;;;;851744;69;26236;-80
2022/02/12 06:05:49;;;;;;;37.93;26.95;;;;;;;;;;851951;69;26280;-82
2022/02/12 06:06:52;;;;;;;36.45;26.30;;;;;;;;;;851516;69;26330;-81
2022/02/12 06:07:54;;;;;;;32.40;25.43;;;;;;;;;;852028;69;26759;-80
2022/02/12 06:09:07;;;;;;;34.18;25.08;;;;;;;;;;852508;69;26310;-80
2022/02/12 06:10:10;;;;;;;35.03;25.27;;;;;;;;;;851537;69;26249;-80
2022/02/12 06:11:13;;;;;;;33.75;25.80;;;;;;;;;;851610;69;26232;-80
2022/02/12 06:12:16;;;;;;;34.20;26.42;;;;;;;;;;851693;69;26248;-81
2022/02/12 06:13:18;;;;;;;34.78;26.00;;;;;;;;;;851675;69;26235;-81
2022/02/12 06:14:21;;;;;;;34.05;25.55;;;;;;;;;;852346;69;26208;-89
2022/02/12 06:15:24;;;;;;;34.10;25.45;;;;;;;;;;851741;69;26576;-77
2022/02/12 06:16:28;;;;;;;36.13;25.97;;;;;;;;;;851425;69;26639;-79
2022/02/12 06:17:31;;;;;;;38.38;25.75;;;;;;;;;;851602;69;26279;-81
2022/02/12 06:18:33;;;;;;;35.73;26.42;;;;;;;;;;851586;69;26305;-80
2022/02/12 06:19:36;;;;;;;36.53;25.65;;;;;;;;;;851766;69;26775;-79
2022/02/12 06:20:39;;;;;;;38.85;26.10;;;;;;;;;;851770;69;26698;-78
2022/02/12 06:21:41;;;;;;;34.80;25.90;;;;;;;;;;851667;69;26193;-79
2022/02/12 06:22:44;;;;;;;33.78;24.23;;;;;;;;;;851655;69;26737;-80
2022/02/12 06:23:47;;;;;;;35.17;26.27;;;;;;;;;;851679;69;26437;-79